sensor_id;sensor_type;location;lat;lon;timestamp;P1;durP1;ratioP1;P2;durP2;ratioP2
2173;SDS011;1093;51.424;11.764;2024-01-15T00:01:35;28.03;;;15.13;;
2173;SDS011;1093;51.424;11.764;2024-01-15T00:04:03;24.90;;;13.90;;
2173;SDS011;1093;51.424;11.764;2024-01-15T00:06:30;31.83;;;15.20;;
2173;SDS011;1093;51.424;11.764;2024-01-15T00:08:58;27.87;;;13.73;;
2173;SDS011;1093;51.424;11.764;2024-01-15T00:11:25;22.47;;;13.77;;
2173;SDS011;1093;51.424;11.764;2024-01-15T00:13:52;26.43;;;14.23;;
2173;SDS011;1093;51.424;11.764;2024-01-15T00:16:19;31.37;;;15.03;;
2173;SDS011;1093;51.424;11.764;2024-01-15T00:18:45;28.13;;;14.70;;
2173;SDS011;1093;51.424;11.764;2024-01-15T00:21:13;32.57;;;16.10;;
2173;SDS011;1093;51.424;11.764;2024-01-15T00:23:42;27.10;;;14.57;;
2173;SDS011;1093;51.424;11.764;2024-01-15T00:26:09;25.23;;;13.60;;
2173;SDS011;1093;51.424;11.764;2024-01-15T00:28:36;25.97;;;13.63;;
2173;SDS011;1093;51.424;11.764;2024-01-15T00:31:03;27.77;;;14.30;;
2173;SDS011;1093;51.424;11.764;2024-01-15T00:33:30;28.03;;;15.20;;
2173;SDS011;1093;51.424;11.764;2024-01-15T00:35:57;21.03;;;11.27;;
2173;SDS011;1093;51.424;11.764;2024-01-15T00:38:25;26.07;;;14.10;;
2173;SDS011;1093;51.424;11.764;2024-01-15T00:40:52;22.47;;;12.53;;
2173;SDS011;1093;51.424;11.764;2024-01-15T00:43:19;23.30;;;14.00;;
2173;SDS011;1093;51.424;11.764;2024-01-15T00:45:46;26.93;;;13.77;;
2173;SDS011;1093;51.424;11.764;2024-01-15T00:48:13;21.40;;;12.03;;
2173;SDS011;1093;51.424;11.764;2024-01-15T00:50:41;24.43;;;14.07;;
2173;SDS011;1093;51.424;11.764;2024-01-15T00:53:07;32.83;;;15.70;;
2173;SDS011;1093;51.424;11.764;2024-01-15T00:55:35;27.80;;;13.77;;
2173;SDS011;1093;51.424;11.764;2024-01-15T00:58:02;30.83;;;15.57;;
2173;SDS011;1093;51.424;11.764;2024-01-15T01:00:29;24.80;;;14.63;;
2173;SDS011;1093;51.424;11.764;2024-01-15T01:02:56;29.57;;;15.17;;
2173;SDS011;1093;51.424;11.764;2024-01-15T01:05:23;24.70;;;13.27;;
2173;SDS011;1093;51.424;11.764;2024-01-15T01:07:49;27.97;;;15.23;;
2173;SDS011;1093;51.424;11.764;2024-01-15T01:10:16;28.60;;;15.00;;
2173;SDS011;1093;51.424;11.764;2024-01-15T01:12:44;28.87;;;15.80;;
2173;SDS011;1093;51.424;11.764;2024-01-15T01:15:11;28.53;;;14.20;;
2173;SDS011;1093;51.424;11.764;2024-01-15T01:17:38;28.93;;;15.20;;
2173;SDS011;1093;51.424;11.764;2024-01-15T01:20:05;26.40;;;14.23;;
2173;SDS011;1093;51.424;11.764;2024-01-15T01:22:34;31.50;;;14.77;;
2173;SDS011;1093;51.424;11.764;2024-01-15T01:25:00;32.33;;;18.00;;
2173;SDS011;1093;51.424;11.764;2024-01-15T01:27:28;33.30;;;14.87;;
2173;SDS011;1093;51.424;11.764;2024-01-15T01:29:56;25.87;;;13.40;;
2173;SDS011;1093;51.424;11.764;2024-01-15T01:32:23;29.53;;;15.20;;
2173;SDS011;1093;51.424;11.764;2024-01-15T01:34:51;24.73;;;14.30;;
2173;SDS011;1093;51.424;11.764;2024-01-15T01:37:18;27.60;;;15.33;;
2173;SDS011;1093;51.424;11.764;2024-01-15T01:39:45;26.03;;;13.77;;
2173;SDS011;1093;51.424;11.764;2024-01-15T01:42:12;32.17;;;13.77;;
2173;SDS011;1093;51.424;11.764;2024-01-15T01:44:38;27.53;;;14.13;;
2173;SDS011;1093;51.424;11.764;2024-01-15T01:47:06;25.77;;;14.47;;
2173;SDS011;1093;51.424;11.764;2024-01-15T01:49:34;32.57;;;16.23;;
2173;SDS011;1093;51.424;11.764;2024-01-15T01:52:01;30.90;;;15.13;;
2173;SDS011;1093;51.424;11.764;2024-01-15T01:54:31;25.40;;;15.17;;
2173;SDS011;1093;51.424;11.764;2024-01-15T01:56:59;26.20;;;14.43;;
2173;SDS011;1093;51.424;11.764;2024-01-15T01:59:28;26.20;;;13.93;;
2173;SDS011;1093;51.424;11.764;2024-01-15T02:01:56;28.10;;;15.90;;
2173;SDS011;1093;51.424;11.764;2024-01-15T02:04:26;25.90;;;14.27;;
2173;SDS011;1093;51.424;11.764;2024-01-15T02:06:53;31.73;;;14.30;;
2173;SDS011;1093;51.424;11.764;2024-01-15T02:09:19;31.20;;;14.40;;
2173;SDS011;1093;51.424;11.764;2024-01-15T02:11:47;26.57;;;14.60;;
2173;SDS011;1093;51.424;11.764;2024-01-15T02:14:14;23.93;;;14.90;;
2173;SDS011;1093;51.424;11.764;2024-01-15T02:16:41;26.73;;;14.20;;
2173;SDS011;1093;51.424;11.764;2024-01-15T02:19:10;23.97;;;14.20;;
2173;SDS011;1093;51.424;11.764;2024-01-15T02:21:42;21.00;;;13.83;;
2173;SDS011;1093;51.424;11.764;2024-01-15T02:24:11;29.33;;;13.33;;
2173;SDS011;1093;51.424;11.764;2024-01-15T02:26:39;24.70;;;13.57;;
2173;SDS011;1093;51.424;11.764;2024-01-15T02:29:06;31.73;;;14.33;;
2173;SDS011;1093;51.424;11.764;2024-01-15T02:31:34;28.10;;;12.60;;
2173;SDS011;1093;51.424;11.764;2024-01-15T02:34:03;26.00;;;13.47;;
2173;SDS011;1093;51.424;11.764;2024-01-15T02:36:30;28.33;;;12.33;;
2173;SDS011;1093;51.424;11.764;2024-01-15T02:38:57;31.17;;;15.47;;
2173;SDS011;1093;51.424;11.764;2024-01-15T02:41:25;31.50;;;14.63;;
2173;SDS011;1093;51.424;11.764;2024-01-15T02:43:52;24.30;;;12.63;;
2173;SDS011;1093;51.424;11.764;2024-01-15T02:46:18;27.60;;;13.13;;
2173;SDS011;1093;51.424;11.764;2024-01-15T02:48:45;30.40;;;15.53;;
2173;SDS011;1093;51.424;11.764;2024-01-15T02:51:12;28.00;;;12.83;;
2173;SDS011;1093;51.424;11.764;2024-01-15T02:53:39;27.40;;;13.47;;
2173;SDS011;1093;51.424;11.764;2024-01-15T02:56:06;23.53;;;13.20;;
2173;SDS011;1093;51.424;11.764;2024-01-15T02:58:35;25.50;;;12.37;;
2173;SDS011;1093;51.424;11.764;2024-01-15T03:01:01;26.60;;;15.80;;
2173;SDS011;1093;51.424;11.764;2024-01-15T03:03:28;27.60;;;13.40;;
2173;SDS011;1093;51.424;11.764;2024-01-15T03:05:55;27.27;;;14.07;;
2173;SDS011;1093;51.424;11.764;2024-01-15T03:08:21;32.83;;;15.17;;
2173;SDS011;1093;51.424;11.764;2024-01-15T03:10:48;29.70;;;14.97;;
2173;SDS011;1093;51.424;11.764;2024-01-15T03:13:15;23.70;;;14.63;;
2173;SDS011;1093;51.424;11.764;2024-01-15T03:15:45;26.73;;;14.10;;
2173;SDS011;1093;51.424;11.764;2024-01-15T03:18:12;21.60;;;12.40;;
2173;SDS011;1093;51.424;11.764;2024-01-15T03:20:39;32.37;;;13.70;;
2173;SDS011;1093;51.424;11.764;2024-01-15T03:23:05;24.17;;;13.70;;
2173;SDS011;1093;51.424;11.764;2024-01-15T03:25:32;27.57;;;12.47;;
2173;SDS011;1093;51.424;11.764;2024-01-15T03:27:58;25.43;;;13.77;;
2173;SDS011;1093;51.424;11.764;2024-01-15T03:30:25;34.00;;;14.70;;
2173;SDS011;1093;51.424;11.764;2024-01-15T03:32:53;28.13;;;13.60;;
2173;SDS011;1093;51.424;11.764;2024-01-15T03:35:20;30.60;;;11.80;;
2173;SDS011;1093;51.424;11.764;2024-01-15T03:37:47;22.93;;;12.43;;
2173;SDS011;1093;51.424;11.764;2024-01-15T03:40:13;31.40;;;14.50;;
2173;SDS011;1093;51.424;11.764;2024-01-15T03:42:40;26.93;;;13.83;;
2173;SDS011;1093;51.424;11.764;2024-01-15T03:45:07;24.60;;;11.63;;
2173;SDS011;1093;51.424;11.764;2024-01-15T03:47:34;26.97;;;12.77;;
2173;SDS011;1093;51.424;11.764;2024-01-15T03:50:02;24.93;;;12.80;;
2173;SDS011;1093;51.424;11.764;2024-01-15T03:52:29;22.00;;;12.00;;
2173;SDS011;1093;51.424;11.764;2024-01-15T03:54:56;21.03;;;11.13;;
2173;SDS011;1093;51.424;11.764;2024-01-15T03:57:22;17.97;;;10.87;;
2173;SDS011;1093;51.424;11.764;2024-01-15T03:59:49;23.30;;;14.03;;
2173;SDS011;1093;51.424;11.764;2024-01-15T04:02:16;26.60;;;12.30;;
2173;SDS011;1093;51.424;11.764;2024-01-15T04:04:43;19.83;;;11.37;;
2173;SDS011;1093;51.424;11.764;2024-01-15T04:07:11;23.50;;;12.60;;
2173;SDS011;1093;51.424;11.764;2024-01-15T04:09:38;17.47;;;9.00;;
2173;SDS011;1093;51.424;11.764;2024-01-15T04:12:05;22.83;;;11.10;;
2173;SDS011;1093;51.424;11.764;2024-01-15T04:14:32;19.03;;;11.37;;
2173;SDS011;1093;51.424;11.764;2024-01-15T04:16:59;23.97;;;11.70;;
2173;SDS011;1093;51.424;11.764;2024-01-15T04:19:25;18.67;;;12.67;;
2173;SDS011;1093;51.424;11.764;2024-01-15T04:21:52;17.13;;;10.97;;
2173;SDS011;1093;51.424;11.764;2024-01-15T04:24:20;18.77;;;11.03;;
2173;SDS011;1093;51.424;11.764;2024-01-15T04:26:47;28.30;;;11.80;;
2173;SDS011;1093;51.424;11.764;2024-01-15T04:29:14;17.77;;;9.90;;
2173;SDS011;1093;51.424;11.764;2024-01-15T04:31:40;17.33;;;10.30;;
2173;SDS011;1093;51.424;11.764;2024-01-15T04:34:07;17.70;;;8.70;;
2173;SDS011;1093;51.424;11.764;2024-01-15T04:36:38;24.47;;;11.50;;
2173;SDS011;1093;51.424;11.764;2024-01-15T04:39:05;14.60;;;10.13;;
2173;SDS011;1093;51.424;11.764;2024-01-15T04:41:33;18.93;;;9.63;;
2173;SDS011;1093;51.424;11.764;2024-01-15T04:44:00;15.37;;;9.53;;
2173;SDS011;1093;51.424;11.764;2024-01-15T04:46:26;21.63;;;10.03;;
2173;SDS011;1093;51.424;11.764;2024-01-15T04:48:53;16.67;;;11.20;;
2173;SDS011;1093;51.424;11.764;2024-01-15T04:51:20;17.07;;;10.03;;
2173;SDS011;1093;51.424;11.764;2024-01-15T04:53:46;12.93;;;7.30;;
2173;SDS011;1093;51.424;11.764;2024-01-15T04:56:13;18.73;;;9.83;;
2173;SDS011;1093;51.424;11.764;2024-01-15T04:58:41;20.47;;;7.80;;
2173;SDS011;1093;51.424;11.764;2024-01-15T05:01:08;20.50;;;8.80;;
2173;SDS011;1093;51.424;11.764;2024-01-15T05:03:35;19.37;;;9.40;;
2173;SDS011;1093;51.424;11.764;2024-01-15T05:06:01;13.30;;;7.87;;
2173;SDS011;1093;51.424;11.764;2024-01-15T05:08:28;16.50;;;8.00;;
2173;SDS011;1093;51.424;11.764;2024-01-15T05:10:55;15.77;;;8.83;;
2173;SDS011;1093;51.424;11.764;2024-01-15T05:13:22;17.50;;;8.77;;
2173;SDS011;1093;51.424;11.764;2024-01-15T05:15:51;19.37;;;9.20;;
2173;SDS011;1093;51.424;11.764;2024-01-15T05:18:17;12.93;;;8.37;;
2173;SDS011;1093;51.424;11.764;2024-01-15T05:20:44;14.17;;;9.40;;
2173;SDS011;1093;51.424;11.764;2024-01-15T05:23:11;17.70;;;9.10;;
2173;SDS011;1093;51.424;11.764;2024-01-15T05:25:38;14.60;;;8.63;;
2173;SDS011;1093;51.424;11.764;2024-01-15T05:28:05;12.43;;;8.53;;
2173;SDS011;1093;51.424;11.764;2024-01-15T05:30:32;14.00;;;8.43;;
2173;SDS011;1093;51.424;11.764;2024-01-15T05:33:00;15.17;;;8.30;;
2173;SDS011;1093;51.424;11.764;2024-01-15T05:35:27;12.73;;;8.30;;
2173;SDS011;1093;51.424;11.764;2024-01-15T05:37:55;13.60;;;7.73;;
2173;SDS011;1093;51.424;11.764;2024-01-15T05:40:23;13.23;;;8.57;;
2173;SDS011;1093;51.424;11.764;2024-01-15T05:42:51;15.50;;;8.73;;
2173;SDS011;1093;51.424;11.764;2024-01-15T05:45:17;11.20;;;8.20;;
2173;SDS011;1093;51.424;11.764;2024-01-15T05:47:44;13.13;;;7.67;;
2173;SDS011;1093;51.424;11.764;2024-01-15T05:50:12;17.10;;;8.70;;
2173;SDS011;1093;51.424;11.764;2024-01-15T05:52:39;14.33;;;8.90;;
2173;SDS011;1093;51.424;11.764;2024-01-15T05:55:06;19.10;;;9.10;;
2173;SDS011;1093;51.424;11.764;2024-01-15T05:57:34;12.90;;;10.00;;
2173;SDS011;1093;51.424;11.764;2024-01-15T06:00:01;16.27;;;8.90;;
2173;SDS011;1093;51.424;11.764;2024-01-15T06:02:28;18.67;;;7.70;;
2173;SDS011;1093;51.424;11.764;2024-01-15T06:04:55;13.47;;;7.97;;
2173;SDS011;1093;51.424;11.764;2024-01-15T06:07:23;15.47;;;7.53;;
2173;SDS011;1093;51.424;11.764;2024-01-15T06:09:50;13.97;;;8.57;;
2173;SDS011;1093;51.424;11.764;2024-01-15T06:12:17;19.07;;;8.57;;
2173;SDS011;1093;51.424;11.764;2024-01-15T06:14:44;13.53;;;7.30;;
2173;SDS011;1093;51.424;11.764;2024-01-15T06:17:13;11.73;;;8.37;;
2173;SDS011;1093;51.424;11.764;2024-01-15T06:19:40;16.40;;;8.97;;
2173;SDS011;1093;51.424;11.764;2024-01-15T06:22:06;13.83;;;8.00;;
2173;SDS011;1093;51.424;11.764;2024-01-15T06:24:34;18.63;;;8.87;;
2173;SDS011;1093;51.424;11.764;2024-01-15T06:27:01;15.97;;;8.07;;
2173;SDS011;1093;51.424;11.764;2024-01-15T06:29:28;19.30;;;8.43;;
2173;SDS011;1093;51.424;11.764;2024-01-15T06:31:57;13.60;;;7.67;;
2173;SDS011;1093;51.424;11.764;2024-01-15T06:34:24;13.30;;;7.43;;
2173;SDS011;1093;51.424;11.764;2024-01-15T06:36:51;13.60;;;7.50;;
2173;SDS011;1093;51.424;11.764;2024-01-15T06:39:18;16.43;;;7.40;;
2173;SDS011;1093;51.424;11.764;2024-01-15T06:41:47;13.83;;;8.27;;
2173;SDS011;1093;51.424;11.764;2024-01-15T06:44:14;16.40;;;8.93;;
2173;SDS011;1093;51.424;11.764;2024-01-15T06:46:41;14.90;;;9.13;;
2173;SDS011;1093;51.424;11.764;2024-01-15T06:49:09;16.90;;;9.30;;
2173;SDS011;1093;51.424;11.764;2024-01-15T06:51:36;13.23;;;8.63;;
2173;SDS011;1093;51.424;11.764;2024-01-15T06:54:03;20.23;;;10.17;;
2173;SDS011;1093;51.424;11.764;2024-01-15T06:56:30;21.07;;;9.50;;
2173;SDS011;1093;51.424;11.764;2024-01-15T06:58:58;17.00;;;9.80;;
2173;SDS011;1093;51.424;11.764;2024-01-15T07:01:25;14.47;;;7.90;;
2173;SDS011;1093;51.424;11.764;2024-01-15T07:03:52;17.13;;;10.83;;
2173;SDS011;1093;51.424;11.764;2024-01-15T07:06:19;18.50;;;9.07;;
2173;SDS011;1093;51.424;11.764;2024-01-15T07:08:46;12.97;;;10.20;;
2173;SDS011;1093;51.424;11.764;2024-01-15T07:11:13;13.30;;;7.67;;
2173;SDS011;1093;51.424;11.764;2024-01-15T07:13:40;12.27;;;7.87;;
2173;SDS011;1093;51.424;11.764;2024-01-15T07:16:08;11.83;;;8.03;;
2173;SDS011;1093;51.424;11.764;2024-01-15T07:18:34;18.30;;;8.97;;
2173;SDS011;1093;51.424;11.764;2024-01-15T07:21:01;17.27;;;8.13;;
2173;SDS011;1093;51.424;11.764;2024-01-15T07:23:30;13.80;;;7.93;;
2173;SDS011;1093;51.424;11.764;2024-01-15T07:25:57;14.63;;;8.77;;
2173;SDS011;1093;51.424;11.764;2024-01-15T07:28:24;12.27;;;8.50;;
2173;SDS011;1093;51.424;11.764;2024-01-15T07:30:51;13.90;;;8.50;;
2173;SDS011;1093;51.424;11.764;2024-01-15T07:33:18;14.87;;;8.83;;
2173;SDS011;1093;51.424;11.764;2024-01-15T07:35:45;14.00;;;8.00;;
2173;SDS011;1093;51.424;11.764;2024-01-15T07:38:12;14.13;;;9.73;;
2173;SDS011;1093;51.424;11.764;2024-01-15T07:40:38;13.77;;;8.63;;
2173;SDS011;1093;51.424;11.764;2024-01-15T07:43:05;17.27;;;8.10;;
2173;SDS011;1093;51.424;11.764;2024-01-15T07:45:32;15.93;;;9.47;;
2173;SDS011;1093;51.424;11.764;2024-01-15T07:47:59;15.60;;;10.27;;
2173;SDS011;1093;51.424;11.764;2024-01-15T07:50:27;20.97;;;8.50;;
2173;SDS011;1093;51.424;11.764;2024-01-15T07:52:53;21.60;;;10.80;;
2173;SDS011;1093;51.424;11.764;2024-01-15T07:55:22;15.67;;;9.57;;
2173;SDS011;1093;51.424;11.764;2024-01-15T07:57:48;17.67;;;9.00;;
2173;SDS011;1093;51.424;11.764;2024-01-15T08:00:17;14.10;;;8.33;;
2173;SDS011;1093;51.424;11.764;2024-01-15T08:02:43;12.47;;;8.37;;
2173;SDS011;1093;51.424;11.764;2024-01-15T08:05:10;9.67;;;7.67;;
2173;SDS011;1093;51.424;11.764;2024-01-15T08:07:40;14.13;;;9.70;;
2173;SDS011;1093;51.424;11.764;2024-01-15T08:10:07;20.67;;;8.90;;
2173;SDS011;1093;51.424;11.764;2024-01-15T08:12:33;14.03;;;8.13;;
2173;SDS011;1093;51.424;11.764;2024-01-15T08:15:00;17.27;;;8.90;;
2173;SDS011;1093;51.424;11.764;2024-01-15T08:17:27;14.03;;;8.10;;
2173;SDS011;1093;51.424;11.764;2024-01-15T08:19:54;20.53;;;9.23;;
2173;SDS011;1093;51.424;11.764;2024-01-15T08:22:21;17.07;;;8.77;;
2173;SDS011;1093;51.424;11.764;2024-01-15T08:24:50;17.83;;;8.97;;
2173;SDS011;1093;51.424;11.764;2024-01-15T08:27:18;15.43;;;8.50;;
2173;SDS011;1093;51.424;11.764;2024-01-15T08:29:45;16.40;;;9.40;;
2173;SDS011;1093;51.424;11.764;2024-01-15T08:32:12;15.10;;;7.90;;
2173;SDS011;1093;51.424;11.764;2024-01-15T08:34:40;13.30;;;8.40;;
2173;SDS011;1093;51.424;11.764;2024-01-15T08:37:09;15.07;;;7.53;;
2173;SDS011;1093;51.424;11.764;2024-01-15T08:39:36;16.20;;;8.20;;
2173;SDS011;1093;51.424;11.764;2024-01-15T08:42:05;15.10;;;9.47;;
2173;SDS011;1093;51.424;11.764;2024-01-15T08:44:32;15.07;;;9.07;;
2173;SDS011;1093;51.424;11.764;2024-01-15T08:46:58;16.93;;;8.47;;
2173;SDS011;1093;51.424;11.764;2024-01-15T08:49:26;17.20;;;10.20;;
2173;SDS011;1093;51.424;11.764;2024-01-15T08:51:53;17.70;;;8.27;;
2173;SDS011;1093;51.424;11.764;2024-01-15T08:54:20;15.60;;;8.60;;
2173;SDS011;1093;51.424;11.764;2024-01-15T08:56:46;17.20;;;7.90;;
2173;SDS011;1093;51.424;11.764;2024-01-15T08:59:14;13.23;;;7.90;;
2173;SDS011;1093;51.424;11.764;2024-01-15T09:01:41;17.27;;;8.53;;
2173;SDS011;1093;51.424;11.764;2024-01-15T09:04:08;19.20;;;8.53;;
2173;SDS011;1093;51.424;11.764;2024-01-15T09:06:34;15.33;;;8.40;;
2173;SDS011;1093;51.424;11.764;2024-01-15T09:09:01;15.30;;;7.50;;
2173;SDS011;1093;51.424;11.764;2024-01-15T09:11:29;18.90;;;8.60;;
2173;SDS011;1093;51.424;11.764;2024-01-15T09:13:57;17.77;;;9.50;;
2173;SDS011;1093;51.424;11.764;2024-01-15T09:16:25;11.13;;;7.30;;
2173;SDS011;1093;51.424;11.764;2024-01-15T09:18:52;16.40;;;9.07;;
2173;SDS011;1093;51.424;11.764;2024-01-15T09:21:21;13.80;;;8.37;;
2173;SDS011;1093;51.424;11.764;2024-01-15T09:23:49;20.23;;;8.63;;
2173;SDS011;1093;51.424;11.764;2024-01-15T09:26:16;15.60;;;8.30;;
2173;SDS011;1093;51.424;11.764;2024-01-15T09:28:43;17.53;;;7.53;;
2173;SDS011;1093;51.424;11.764;2024-01-15T09:31:10;12.50;;;8.47;;
2173;SDS011;1093;51.424;11.764;2024-01-15T09:33:39;17.00;;;8.70;;
2173;SDS011;1093;51.424;11.764;2024-01-15T09:36:06;15.43;;;7.67;;
2173;SDS011;1093;51.424;11.764;2024-01-15T09:38:32;21.27;;;8.03;;
2173;SDS011;1093;51.424;11.764;2024-01-15T09:40:59;13.13;;;8.50;;
2173;SDS011;1093;51.424;11.764;2024-01-15T09:43:26;15.80;;;8.63;;
2173;SDS011;1093;51.424;11.764;2024-01-15T09:45:53;14.80;;;7.23;;
2173;SDS011;1093;51.424;11.764;2024-01-15T09:48:20;11.23;;;7.00;;
2173;SDS011;1093;51.424;11.764;2024-01-15T09:50:48;11.80;;;7.80;;
2173;SDS011;1093;51.424;11.764;2024-01-15T09:53:17;12.43;;;5.87;;
2173;SDS011;1093;51.424;11.764;2024-01-15T09:55:45;11.27;;;6.93;;
2173;SDS011;1093;51.424;11.764;2024-01-15T09:58:12;16.33;;;8.40;;
2173;SDS011;1093;51.424;11.764;2024-01-15T10:00:39;13.30;;;8.10;;
2173;SDS011;1093;51.424;11.764;2024-01-15T10:03:08;13.00;;;7.63;;
2173;SDS011;1093;51.424;11.764;2024-01-15T10:05:36;10.90;;;8.13;;
2173;SDS011;1093;51.424;11.764;2024-01-15T10:08:05;13.43;;;7.90;;
2173;SDS011;1093;51.424;11.764;2024-01-15T10:10:32;13.20;;;7.27;;
2173;SDS011;1093;51.424;11.764;2024-01-15T10:13:03;16.10;;;8.33;;
2173;SDS011;1093;51.424;11.764;2024-01-15T10:15:33;16.53;;;8.63;;
2173;SDS011;1093;51.424;11.764;2024-01-15T10:18:01;14.03;;;8.37;;
2173;SDS011;1093;51.424;11.764;2024-01-15T10:20:28;11.83;;;8.30;;
2173;SDS011;1093;51.424;11.764;2024-01-15T10:22:55;15.03;;;6.90;;
2173;SDS011;1093;51.424;11.764;2024-01-15T10:25:24;13.67;;;7.57;;
2173;SDS011;1093;51.424;11.764;2024-01-15T10:27:58;18.13;;;8.77;;
2173;SDS011;1093;51.424;11.764;2024-01-15T10:30:26;13.37;;;8.50;;
2173;SDS011;1093;51.424;11.764;2024-01-15T10:32:57;13.67;;;7.50;;
2173;SDS011;1093;51.424;11.764;2024-01-15T10:35:27;15.73;;;9.00;;
2173;SDS011;1093;51.424;11.764;2024-01-15T10:37:55;17.70;;;8.50;;
2173;SDS011;1093;51.424;11.764;2024-01-15T10:40:21;14.60;;;7.70;;
2173;SDS011;1093;51.424;11.764;2024-01-15T10:42:50;12.90;;;8.67;;
2173;SDS011;1093;51.424;11.764;2024-01-15T10:45:17;13.30;;;8.23;;
2173;SDS011;1093;51.424;11.764;2024-01-15T10:47:45;16.20;;;7.57;;
2173;SDS011;1093;51.424;11.764;2024-01-15T10:50:13;17.80;;;8.60;;
2173;SDS011;1093;51.424;11.764;2024-01-15T10:52:41;14.43;;;7.23;;
2173;SDS011;1093;51.424;11.764;2024-01-15T10:55:09;14.00;;;7.40;;
2173;SDS011;1093;51.424;11.764;2024-01-15T10:57:36;13.33;;;8.47;;
2173;SDS011;1093;51.424;11.764;2024-01-15T11:00:06;11.13;;;8.07;;
2173;SDS011;1093;51.424;11.764;2024-01-15T11:02:34;18.00;;;8.53;;
2173;SDS011;1093;51.424;11.764;2024-01-15T11:05:02;17.70;;;8.10;;
2173;SDS011;1093;51.424;11.764;2024-01-15T11:07:29;12.83;;;7.57;;
2173;SDS011;1093;51.424;11.764;2024-01-15T11:09:56;12.63;;;7.93;;
2173;SDS011;1093;51.424;11.764;2024-01-15T11:12:24;21.30;;;8.43;;
2173;SDS011;1093;51.424;11.764;2024-01-15T11:15:00;16.17;;;8.57;;
2173;SDS011;1093;51.424;11.764;2024-01-15T11:17:31;16.90;;;9.70;;
2173;SDS011;1093;51.424;11.764;2024-01-15T11:20:25;18.63;;;8.97;;
2173;SDS011;1093;51.424;11.764;2024-01-15T11:22:51;16.73;;;9.70;;
2173;SDS011;1093;51.424;11.764;2024-01-15T11:25:19;17.13;;;8.13;;
2173;SDS011;1093;51.424;11.764;2024-01-15T11:27:46;17.70;;;9.80;;
2173;SDS011;1093;51.424;11.764;2024-01-15T11:30:16;19.40;;;9.90;;
2173;SDS011;1093;51.424;11.764;2024-01-15T11:32:44;14.87;;;9.20;;
2173;SDS011;1093;51.424;11.764;2024-01-15T11:35:12;13.50;;;7.90;;
2173;SDS011;1093;51.424;11.764;2024-01-15T11:37:58;15.93;;;9.53;;
2173;SDS011;1093;51.424;11.764;2024-01-15T11:40:36;15.73;;;9.53;;
2173;SDS011;1093;51.424;11.764;2024-01-15T11:43:04;16.70;;;9.37;;
2173;SDS011;1093;51.424;11.764;2024-01-15T11:45:31;17.63;;;8.90;;
2173;SDS011;1093;51.424;11.764;2024-01-15T11:50:48;12.53;;;8.77;;
2173;SDS011;1093;51.424;11.764;2024-01-15T11:53:17;15.80;;;8.83;;
2173;SDS011;1093;51.424;11.764;2024-01-15T11:55:47;16.67;;;9.83;;
2173;SDS011;1093;51.424;11.764;2024-01-15T11:58:17;20.73;;;10.10;;
2173;SDS011;1093;51.424;11.764;2024-01-15T12:00:45;20.07;;;9.43;;
2173;SDS011;1093;51.424;11.764;2024-01-15T12:03:14;13.13;;;7.60;;
2173;SDS011;1093;51.424;11.764;2024-01-15T12:05:42;17.73;;;7.07;;
2173;SDS011;1093;51.424;11.764;2024-01-15T12:08:09;17.60;;;7.40;;
2173;SDS011;1093;51.424;11.764;2024-01-15T12:10:36;12.13;;;9.60;;
2173;SDS011;1093;51.424;11.764;2024-01-15T12:13:04;18.07;;;7.00;;
2173;SDS011;1093;51.424;11.764;2024-01-15T12:15:32;11.57;;;6.23;;
2173;SDS011;1093;51.424;11.764;2024-01-15T12:18:00;16.37;;;7.93;;
2173;SDS011;1093;51.424;11.764;2024-01-15T12:20:28;12.90;;;7.00;;
2173;SDS011;1093;51.424;11.764;2024-01-15T12:22:57;11.57;;;6.70;;
2173;SDS011;1093;51.424;11.764;2024-01-15T12:25:24;9.83;;;5.53;;
2173;SDS011;1093;51.424;11.764;2024-01-15T12:27:52;12.60;;;6.20;;
2173;SDS011;1093;51.424;11.764;2024-01-15T12:30:20;12.70;;;6.80;;
2173;SDS011;1093;51.424;11.764;2024-01-15T12:32:46;11.37;;;6.97;;
2173;SDS011;1093;51.424;11.764;2024-01-15T12:35:13;10.37;;;6.77;;
2173;SDS011;1093;51.424;11.764;2024-01-15T12:37:41;10.40;;;6.10;;
2173;SDS011;1093;51.424;11.764;2024-01-15T12:40:10;12.60;;;5.70;;
2173;SDS011;1093;51.424;11.764;2024-01-15T12:42:39;10.57;;;6.07;;
2173;SDS011;1093;51.424;11.764;2024-01-15T12:45:06;12.90;;;6.13;;
2173;SDS011;1093;51.424;11.764;2024-01-15T12:47:35;16.37;;;7.70;;
2173;SDS011;1093;51.424;11.764;2024-01-15T12:50:05;10.40;;;6.53;;
2173;SDS011;1093;51.424;11.764;2024-01-15T12:52:33;12.33;;;6.57;;
2173;SDS011;1093;51.424;11.764;2024-01-15T12:55:00;15.37;;;7.63;;
2173;SDS011;1093;51.424;11.764;2024-01-15T12:57:29;13.00;;;6.73;;
2173;SDS011;1093;51.424;11.764;2024-01-15T12:59:56;14.60;;;6.70;;
2173;SDS011;1093;51.424;11.764;2024-01-15T13:02:22;10.43;;;7.10;;
2173;SDS011;1093;51.424;11.764;2024-01-15T13:04:50;9.40;;;5.93;;
2173;SDS011;1093;51.424;11.764;2024-01-15T13:07:16;12.60;;;7.07;;
2173;SDS011;1093;51.424;11.764;2024-01-15T13:09:43;12.30;;;6.43;;
2173;SDS011;1093;51.424;11.764;2024-01-15T13:12:09;12.53;;;6.60;;
2173;SDS011;1093;51.424;11.764;2024-01-15T13:14:38;12.60;;;6.50;;
2173;SDS011;1093;51.424;11.764;2024-01-15T13:17:06;9.93;;;6.07;;
2173;SDS011;1093;51.424;11.764;2024-01-15T13:19:32;10.37;;;6.47;;
2173;SDS011;1093;51.424;11.764;2024-01-15T13:21:59;14.97;;;6.53;;
2173;SDS011;1093;51.424;11.764;2024-01-15T13:24:26;9.70;;;6.00;;
2173;SDS011;1093;51.424;11.764;2024-01-15T13:26:53;14.73;;;8.70;;
2173;SDS011;1093;51.424;11.764;2024-01-15T13:29:19;9.23;;;6.10;;
2173;SDS011;1093;51.424;11.764;2024-01-15T13:31:47;15.80;;;6.87;;
2173;SDS011;1093;51.424;11.764;2024-01-15T13:34:14;11.20;;;5.33;;
2173;SDS011;1093;51.424;11.764;2024-01-15T13:36:41;8.70;;;6.27;;
2173;SDS011;1093;51.424;11.764;2024-01-15T13:39:08;8.30;;;5.67;;
2173;SDS011;1093;51.424;11.764;2024-01-15T13:41:35;9.50;;;5.53;;
2173;SDS011;1093;51.424;11.764;2024-01-15T13:44:02;12.40;;;6.70;;
2173;SDS011;1093;51.424;11.764;2024-01-15T13:46:28;6.40;;;4.67;;
2173;SDS011;1093;51.424;11.764;2024-01-15T13:48:56;7.63;;;4.53;;
2173;SDS011;1093;51.424;11.764;2024-01-15T13:51:23;7.63;;;4.97;;
2173;SDS011;1093;51.424;11.764;2024-01-15T13:53:50;6.80;;;4.30;;
2173;SDS011;1093;51.424;11.764;2024-01-15T13:56:17;10.20;;;5.67;;
2173;SDS011;1093;51.424;11.764;2024-01-15T13:58:44;7.37;;;5.53;;
2173;SDS011;1093;51.424;11.764;2024-01-15T14:01:12;6.73;;;4.47;;
2173;SDS011;1093;51.424;11.764;2024-01-15T14:03:39;8.20;;;5.50;;
2173;SDS011;1093;51.424;11.764;2024-01-15T14:06:07;8.10;;;5.70;;
2173;SDS011;1093;51.424;11.764;2024-01-15T14:08:35;9.80;;;4.80;;
2173;SDS011;1093;51.424;11.764;2024-01-15T14:11:02;7.33;;;4.93;;
2173;SDS011;1093;51.424;11.764;2024-01-15T14:13:31;7.63;;;4.67;;
2173;SDS011;1093;51.424;11.764;2024-01-15T14:15:58;6.17;;;3.90;;
2173;SDS011;1093;51.424;11.764;2024-01-15T14:18:25;6.83;;;3.83;;
2173;SDS011;1093;51.424;11.764;2024-01-15T14:20:53;5.17;;;3.30;;
2173;SDS011;1093;51.424;11.764;2024-01-15T14:23:21;8.30;;;4.90;;
2173;SDS011;1093;51.424;11.764;2024-01-15T14:25:48;4.53;;;3.10;;
2173;SDS011;1093;51.424;11.764;2024-01-15T14:28:14;5.60;;;3.10;;
2173;SDS011;1093;51.424;11.764;2024-01-15T14:30:41;4.80;;;3.40;;
2173;SDS011;1093;51.424;11.764;2024-01-15T14:33:10;8.13;;;4.17;;
2173;SDS011;1093;51.424;11.764;2024-01-15T14:35:37;4.00;;;3.60;;
2173;SDS011;1093;51.424;11.764;2024-01-15T14:38:04;5.40;;;2.70;;
2173;SDS011;1093;51.424;11.764;2024-01-15T14:40:32;4.43;;;3.97;;
2173;SDS011;1093;51.424;11.764;2024-01-15T14:42:58;4.17;;;3.03;;
2173;SDS011;1093;51.424;11.764;2024-01-15T14:45:25;6.80;;;3.50;;
2173;SDS011;1093;51.424;11.764;2024-01-15T14:47:52;4.93;;;3.77;;
2173;SDS011;1093;51.424;11.764;2024-01-15T14:50:19;7.00;;;4.70;;